Time;durP1;ratioP1;P1;durP2;ratioP2;P2;SDS_P1;SDS_P2;PMS_P1;PMS_P2;Temp;Humidity;BMP_temperature;BMP_pressure;BME280_temperature;BME280_humidity;BME280_pressure;Samples;Min_cycle;Max_cycle;Signal;HPM_P1;HPM_P2
2022/12/07 00:02:15;;;;;;;;;;;3.30;99.90;;;;;;5027600;28;19908;-72
2022/12/07 00:04:40;;;;;;;;;;;3.30;99.90;;;;;;5028701;28;19936;-71
2022/12/07 00:07:06;;;;;;;;;;;3.30;99.90;;;;;;5022169;28;19949;-72
2022/12/07 00:09:31;;;;;;;;;;;3.40;99.90;;;;;;5027649;28;19955;-72
2022/12/07 00:11:57;;;;;;;;;;;3.40;99.90;;;;;;5021773;28;19917;-72
2022/12/07 00:14:22;;;;;;;;;;;3.40;99.90;;;;;;5024904;28;19920;-72
2022/12/07 00:16:49;;;;;;;;;;;3.40;99.90;;;;;;5014204;28;19917;-72
2022/12/07 00:19:15;;;;;;;;;;;3.40;99.90;;;;;;5008248;28;19924;-72
2022/12/07 00:21:40;;;;;;;;;;;3.30;99.90;;;;;;5021376;28;19917;-72
2022/12/07 00:24:06;;;;;;;;;;;3.30;99.90;;;;;;5018680;28;20206;-72
2022/12/07 00:26:34;;;;;;;;;;;3.20;99.90;;;;;;5029310;28;19982;-72
2022/12/07 00:29:00;;;;;;;;;;;3.10;99.90;;;;;;5025454;28;19909;-72
2022/12/07 00:31:27;;;;;;;;;;;3.10;99.90;;;;;;5035658;28;19951;-72
2022/12/07 00:33:52;;;;;;;;;;;3.00;99.90;;;;;;5028258;28;20288;-72
2022/12/07 00:36:19;;;;;;;;;;;2.90;99.90;;;;;;5030589;28;19924;-72
2022/12/07 00:38:45;;;;;;;;;;;2.90;99.90;;;;;;5032312;28;19913;-72
2022/12/07 00:41:15;;;;;;;;;;;2.90;99.90;;;;;;5030784;28;19913;-72
2022/12/07 00:43:41;;;;;;;;;;;2.90;99.90;;;;;;5031558;28;19917;-72
2022/12/07 00:46:06;;;;;;;;;;;2.90;99.90;;;;;;5033702;28;20224;-72
2022/12/07 00:48:32;;;;;;;;;;;2.80;99.90;;;;;;5032462;28;19913;-72
2022/12/07 00:50:58;;;;;;;;;;;2.80;99.90;;;;;;5029571;28;19909;-72
2022/12/07 00:53:24;;;;;;;;;;;2.70;99.90;;;;;;5025693;28;19909;-72
2022/12/07 00:55:50;;;;;;;;;;;2.80;99.90;;;;;;5033536;28;19913;-72
2022/12/07 00:58:15;;;;;;;;;;;2.80;99.90;;;;;;5027687;28;19910;-72
2022/12/07 01:00:42;;;;;;;;;;;2.80;99.90;;;;;;5031393;28;19920;-72
2022/12/07 01:03:08;;;;;;;;;;;2.80;99.90;;;;;;5027089;28;20292;-72
2022/12/07 01:05:34;;;;;;;;;;;2.70;99.90;;;;;;5030442;28;19951;-71
2022/12/07 01:08:00;;;;;;;;;;;2.70;99.90;;;;;;5032153;28;19956;-72
2022/12/07 01:10:25;;;;;;;;;;;2.70;99.90;;;;;;5028681;28;19931;-72
2022/12/07 01:12:51;;;;;;;;;;;2.70;99.90;;;;;;5034266;28;19919;-71
2022/12/07 01:15:16;;;;;;;;;;;2.70;99.90;;;;;;5034826;28;20008;-71
2022/12/07 01:17:42;;;;;;;;;;;2.80;99.90;;;;;;5027259;28;19916;-72
2022/12/07 01:20:08;;;;;;;;;;;2.80;99.90;;;;;;4971891;28;20334;-71
2022/12/07 01:22:40;;;;;;;;;;;2.80;99.90;;;;;;4920916;28;19919;-72
2022/12/07 01:25:06;;;;;;;;;;;2.80;99.90;;;;;;4936520;28;19913;-71
2022/12/07 01:27:32;;;;;;;;;;;2.70;99.90;;;;;;4921584;28;19949;-71
2022/12/07 01:29:58;;;;;;;;;;;2.60;99.90;;;;;;4918198;28;19913;-71
2022/12/07 01:32:24;;;;;;;;;;;2.70;99.90;;;;;;4915536;28;19933;-72
2022/12/07 01:34:49;;;;;;;;;;;2.90;99.90;;;;;;4935166;28;24060;-73
2022/12/07 01:37:15;;;;;;;;;;;3.30;99.90;;;;;;4920331;28;20654;-73
2022/12/07 01:39:41;;;;;;;;;;;3.50;99.90;;;;;;4923858;28;19963;-72
2022/12/07 01:42:10;;;;;;;;;;;3.70;99.90;;;;;;4917997;28;20478;-71
2022/12/07 01:44:54;;;;;;;;;;;3.90;99.90;;;;;;4921629;28;19917;-72
2022/12/07 01:47:20;;;;;;;;;;;3.90;99.90;;;;;;4921581;28;20004;-71
2022/12/07 01:49:48;;;;;;;;;;;3.90;99.90;;;;;;4918330;28;20768;-72
2022/12/07 01:52:13;;;;;;;;;;;3.90;99.90;;;;;;4919110;28;20071;-72
2022/12/07 01:54:39;;;;;;;;;;;3.90;99.90;;;;;;4918054;28;19920;-72
2022/12/07 01:57:06;;;;;;;;;;;3.90;99.90;;;;;;4920914;28;20795;-73
2022/12/07 01:59:32;;;;;;;;;;;3.80;99.90;;;;;;4917223;28;19920;-73
2022/12/07 02:01:57;;;;;;;;;;;3.80;99.90;;;;;;4918613;28;21306;-72
2022/12/07 02:04:23;;;;;;;;;;;3.70;99.90;;;;;;4919680;28;20549;-72
2022/12/07 02:06:50;;;;;;;;;;;3.80;99.90;;;;;;4919606;28;19956;-72
2022/12/07 02:09:15;;;;;;;;;;;3.70;99.90;;;;;;4922612;28;19913;-72
2022/12/07 02:11:41;;;;;;;;;;;3.60;99.90;;;;;;4921437;28;21301;-72
2022/12/07 02:14:07;;;;;;;;;;;3.60;99.90;;;;;;4922133;28;20654;-72
2022/12/07 02:16:35;;;;;;;;;;;3.60;99.90;;;;;;4934863;28;19913;-72
2022/12/07 02:19:01;;;;;;;;;;;3.60;99.90;;;;;;4920043;28;19920;-72
2022/12/07 02:21:30;;;;;;;;;;;3.50;99.90;;;;;;4920317;28;22027;-73
2022/12/07 02:24:01;;;;;;;;;;;3.40;99.90;;;;;;4920273;28;19913;-72
2022/12/07 02:26:29;;;;;;;;;;;3.40;99.90;;;;;;4916476;28;21238;-72
2022/12/07 02:29:07;;;;;;;;;;;3.40;99.90;;;;;;4916425;28;19913;-73
2022/12/07 02:31:32;;;;;;;;;;;3.30;99.90;;;;;;4917918;28;20383;-72
2022/12/07 02:34:21;;;;;;;;;;;3.30;99.90;;;;;;4919280;28;20008;-72
2022/12/07 02:36:52;;;;;;;;;;;3.20;99.90;;;;;;4914874;28;20899;-72
2022/12/07 02:39:22;;;;;;;;;;;3.00;99.90;;;;;;4924103;28;19912;-73
2022/12/07 02:41:51;;;;;;;;;;;3.00;99.90;;;;;;4918067;28;19963;-73
2022/12/07 02:44:18;;;;;;;;;;;3.20;99.90;;;;;;4918382;28;19921;-73
2022/12/07 02:46:58;;;;;;;;;;;3.40;99.90;;;;;;4918739;28;19916;-72
2022/12/07 02:49:24;;;;;;;;;;;3.40;99.90;;;;;;4919893;28;20283;-73
2022/12/07 02:51:49;;;;;;;;;;;3.40;99.90;;;;;;4917470;28;19913;-73
2022/12/07 02:54:20;;;;;;;;;;;3.30;99.90;;;;;;4924683;28;19956;-73
2022/12/07 02:56:47;;;;;;;;;;;3.20;99.90;;;;;;4915178;28;20273;-73
2022/12/07 02:59:28;;;;;;;;;;;3.20;99.90;;;;;;4931067;28;19947;-73
2022/12/07 03:02:12;;;;;;;;;;;3.00;99.90;;;;;;4915773;28;20657;-73
2022/12/07 03:04:43;;;;;;;;;;;3.10;99.90;;;;;;4916378;28;21564;-73
2022/12/07 03:07:18;;;;;;;;;;;2.90;99.90;;;;;;4917373;28;20512;-72
2022/12/07 03:09:50;;;;;;;;;;;2.90;99.90;;;;;;4916989;28;19920;-73
2022/12/07 03:12:21;;;;;;;;;;;2.80;99.90;;;;;;4919148;28;19913;-72
2022/12/07 03:14:49;;;;;;;;;;;2.80;99.90;;;;;;4917191;28;19920;-73
2022/12/07 03:17:20;;;;;;;;;;;2.80;99.90;;;;;;4923101;28;19941;-72
2022/12/07 03:19:47;;;;;;;;;;;2.70;99.90;;;;;;4920810;28;19921;-72
2022/12/07 03:22:14;;;;;;;;;;;2.70;99.90;;;;;;4918087;28;20201;-72
2022/12/07 03:24:48;;;;;;;;;;;2.70;99.90;;;;;;4917394;28;19913;-72
2022/12/07 03:27:22;;;;;;;;;;;2.70;99.90;;;;;;4932601;28;20663;-72
2022/12/07 03:30:08;;;;;;;;;;;2.70;99.90;;;;;;4917360;28;19967;-72
2022/12/07 03:32:40;;;;;;;;;;;2.70;99.90;;;;;;4918295;28;20674;-72
2022/12/07 03:35:09;;;;;;;;;;;2.70;99.90;;;;;;4916891;28;20019;-73
2022/12/07 03:37:43;;;;;;;;;;;2.80;99.90;;;;;;4917417;28;20055;-72
2022/12/07 03:40:22;;;;;;;;;;;2.80;99.90;;;;;;4931092;28;19920;-73
2022/12/07 03:42:48;;;;;;;;;;;2.90;99.90;;;;;;4916962;28;19935;-72
2022/12/07 03:45:14;;;;;;;;;;;2.90;99.90;;;;;;4920023;28;20640;-72
2022/12/07 03:47:49;;;;;;;;;;;2.90;99.90;;;;;;4931995;28;19997;-72
2022/12/07 03:50:33;;;;;;;;;;;2.90;99.90;;;;;;4919680;28;21134;-72
2022/12/07 03:53:05;;;;;;;;;;;3.00;99.90;;;;;;4932959;28;19924;-72
2022/12/07 03:55:32;;;;;;;;;;;3.10;99.90;;;;;;4917530;28;19921;-72
2022/12/07 03:58:18;;;;;;;;;;;3.10;99.90;;;;;;4916442;28;20008;-72
2022/12/07 04:00:44;;;;;;;;;;;3.10;99.90;;;;;;4918902;28;19913;-72
2022/12/07 04:03:10;;;;;;;;;;;3.00;99.90;;;;;;4920031;28;24325;-73
2022/12/07 04:05:35;;;;;;;;;;;3.00;99.90;;;;;;4920614;28;19956;-73
2022/12/07 04:08:01;;;;;;;;;;;2.90;99.90;;;;;;4922554;28;20558;-72
2022/12/07 04:10:26;;;;;;;;;;;2.90;99.90;;;;;;4922014;28;19955;-74
2022/12/07 04:12:52;;;;;;;;;;;3.00;99.90;;;;;;4921735;28;19952;-73
2022/12/07 04:15:17;;;;;;;;;;;3.30;99.90;;;;;;4923234;28;19920;-72
2022/12/07 04:17:43;;;;;;;;;;;3.50;99.90;;;;;;4938017;28;20019;-72
2022/12/07 04:20:09;;;;;;;;;;;3.60;99.90;;;;;;4920680;28;19921;-73
2022/12/07 04:22:34;;;;;;;;;;;3.70;99.90;;;;;;4923033;28;20315;-73
2022/12/07 04:25:00;;;;;;;;;;;3.80;99.90;;;;;;4921112;28;20011;-74
2022/12/07 04:27:25;;;;;;;;;;;3.80;99.90;;;;;;4921444;28;20052;-73
2022/12/07 04:29:51;;;;;;;;;;;3.80;99.90;;;;;;4922117;28;19913;-73
2022/12/07 04:32:17;;;;;;;;;;;3.60;99.90;;;;;;4921979;28;20000;-72
2022/12/07 04:34:42;;;;;;;;;;;3.50;99.90;;;;;;4923099;28;19929;-73
2022/12/07 04:37:08;;;;;;;;;;;3.40;99.90;;;;;;4920505;28;19967;-73
2022/12/07 04:39:33;;;;;;;;;;;3.30;99.90;;;;;;4920668;28;19939;-74
2022/12/07 04:41:59;;;;;;;;;;;3.20;99.90;;;;;;4919062;28;19996;-72
2022/12/07 04:44:26;;;;;;;;;;;3.20;99.90;;;;;;4921863;28;19913;-73
2022/12/07 04:46:51;;;;;;;;;;;3.10;99.90;;;;;;4923048;28;21553;-72
2022/12/07 04:49:17;;;;;;;;;;;3.10;99.90;;;;;;4921016;28;20015;-73
2022/12/07 04:51:43;;;;;;;;;;;3.00;99.90;;;;;;4923620;28;19912;-72
2022/12/07 04:54:09;;;;;;;;;;;3.00;99.90;;;;;;4923397;28;19962;-72
2022/12/07 04:56:35;;;;;;;;;;;3.00;99.90;;;;;;4919957;28;19913;-73
2022/12/07 04:59:01;;;;;;;;;;;3.00;99.90;;;;;;4922225;28;20068;-73
2022/12/07 05:01:26;;;;;;;;;;;2.80;99.90;;;;;;4920261;28;20015;-72
2022/12/07 05:03:52;;;;;;;;;;;2.70;99.90;;;;;;4919928;28;19958;-73
2022/12/07 05:06:18;;;;;;;;;;;2.60;99.90;;;;;;4902060;28;19927;-73
2022/12/07 05:08:43;;;;;;;;;;;2.50;99.90;;;;;;4923304;28;20039;-72
2022/12/07 05:11:37;;;;;;;;;;;2.40;99.90;;;;;;4921443;28;20079;-73
2022/12/07 05:13:55;;;;;;;;;;;2.30;99.90;;;;;;4923287;28;19913;-72
2022/12/07 05:16:21;;;;;;;;;;;2.30;99.90;;;;;;4920565;28;19921;-73
2022/12/07 05:18:46;;;;;;;;;;;2.30;99.90;;;;;;4920749;28;20006;-73
2022/12/07 05:21:12;;;;;;;;;;;2.40;99.90;;;;;;4924442;28;21381;-72
2022/12/07 05:23:37;;;;;;;;;;;2.50;99.90;;;;;;4922688;28;19924;-73
2022/12/07 05:26:03;;;;;;;;;;;2.70;99.90;;;;;;4918639;28;19913;-73
2022/12/07 05:28:28;;;;;;;;;;;2.60;99.90;;;;;;4921839;28;19913;-73
2022/12/07 05:30:54;;;;;;;;;;;2.60;99.90;;;;;;4921175;28;20059;-73
2022/12/07 05:33:19;;;;;;;;;;;2.60;99.90;;;;;;4921141;28;21034;-72
2022/12/07 05:35:45;;;;;;;;;;;2.50;99.90;;;;;;4918188;28;19921;-73
2022/12/07 05:38:11;;;;;;;;;;;2.50;99.90;;;;;;4918488;28;19917;-72
2022/12/07 05:40:36;;;;;;;;;;;2.60;99.90;;;;;;4936072;28;19924;-73
2022/12/07 05:43:02;;;;;;;;;;;2.60;99.90;;;;;;4919313;28;20060;-73
2022/12/07 05:45:28;;;;;;;;;;;2.70;99.90;;;;;;4918273;28;21616;-72
2022/12/07 05:47:53;;;;;;;;;;;2.80;99.90;;;;;;4920815;28;20544;-73
2022/12/07 05:50:19;;;;;;;;;;;2.90;99.90;;;;;;4918079;28;19962;-73
2022/12/07 05:52:44;;;;;;;;;;;3.00;99.90;;;;;;4920960;28;19913;-73
2022/12/07 05:55:10;;;;;;;;;;;3.10;99.90;;;;;;4920281;28;19921;-73
2022/12/07 05:57:35;;;;;;;;;;;3.10;99.90;;;;;;4919254;28;19944;-73
2022/12/07 06:00:01;;;;;;;;;;;3.10;99.90;;;;;;4921343;28;19919;-73
2022/12/07 06:02:27;;;;;;;;;;;3.10;99.90;;;;;;4936303;28;20030;-73
2022/12/07 06:04:52;;;;;;;;;;;3.00;99.90;;;;;;4917525;28;19991;-73
2022/12/07 06:07:18;;;;;;;;;;;3.00;99.90;;;;;;4920571;28;19912;-73
2022/12/07 06:09:43;;;;;;;;;;;2.90;99.90;;;;;;4920815;28;19916;-74
2022/12/07 06:14:54;;;;;;;;;;;2.90;99.90;;;;;;4920337;28;19928;-73
2022/12/07 06:17:20;;;;;;;;;;;2.90;99.90;;;;;;4918963;28;20843;-73
2022/12/07 06:19:45;;;;;;;;;;;2.80;99.90;;;;;;4922830;28;20312;-73
2022/12/07 06:22:11;;;;;;;;;;;2.90;99.90;;;;;;4920224;28;20001;-73
2022/12/07 06:24:37;;;;;;;;;;;3.00;99.90;;;;;;4920426;28;19940;-73
2022/12/07 06:27:04;;;;;;;;;;;2.90;99.90;;;;;;4921767;28;20004;-73
2022/12/07 06:29:29;;;;;;;;;;;2.90;99.90;;;;;;4918632;28;19916;-73
2022/12/07 06:31:55;;;;;;;;;;;2.90;99.90;;;;;;4919034;28;19963;-73
2022/12/07 06:34:22;;;;;;;;;;;2.90;99.90;;;;;;4919067;28;20339;-73
2022/12/07 06:36:51;;;;;;;;;;;2.90;99.90;;;;;;4917263;28;19920;-75
2022/12/07 06:39:21;;;;;;;;;;;3.00;99.90;;;;;;4920730;28;20012;-74
2022/12/07 06:41:47;;;;;;;;;;;3.20;99.90;;;;;;4934937;28;19913;-73
2022/12/07 06:44:12;;;;;;;;;;;3.30;99.90;;;;;;4920466;28;21140;-73
2022/12/07 06:46:38;;;;;;;;;;;3.30;99.90;;;;;;4921650;28;19942;-73
2022/12/07 06:49:04;;;;;;;;;;;3.30;99.90;;;;;;4917629;28;21736;-72
2022/12/07 06:51:30;;;;;;;;;;;3.30;99.90;;;;;;4916636;28;19944;-72
2022/12/07 06:53:56;;;;;;;;;;;3.30;99.90;;;;;;4919780;28;20615;-73
2022/12/07 06:56:22;;;;;;;;;;;3.20;99.90;;;;;;4915877;28;19978;-72
2022/12/07 06:58:48;;;;;;;;;;;3.10;99.90;;;;;;4917121;28;19922;-73
2022/12/07 07:01:14;;;;;;;;;;;3.10;99.90;;;;;;4921699;28;19913;-72
2022/12/07 07:03:40;;;;;;;;;;;3.00;99.90;;;;;;4920081;28;20036;-72
2022/12/07 07:06:07;;;;;;;;;;;2.90;99.90;;;;;;4919954;28;20304;-73
2022/12/07 07:08:33;;;;;;;;;;;2.90;99.90;;;;;;4916579;28;20001;-72
2022/12/07 07:10:58;;;;;;;;;;;2.90;99.90;;;;;;4917364;28;19920;-72
2022/12/07 07:13:24;;;;;;;;;;;2.80;99.90;;;;;;4916567;28;20512;-72
2022/12/07 07:15:50;;;;;;;;;;;2.80;99.90;;;;;;4915396;28;21268;-72
2022/12/07 07:18:15;;;;;;;;;;;2.70;99.90;;;;;;4913812;28;19928;-72
2022/12/07 07:20:41;;;;;;;;;;;2.60;99.90;;;;;;4913416;28;19920;-73
2022/12/07 07:23:07;;;;;;;;;;;2.60;99.90;;;;;;4913453;28;19951;-72
2022/12/07 07:25:32;;;;;;;;;;;2.50;99.90;;;;;;4914899;28;19913;-72
2022/12/07 07:27:58;;;;;;;;;;;2.50;99.90;;;;;;4914345;28;19913;-72
2022/12/07 07:30:24;;;;;;;;;;;2.50;99.90;;;;;;4912154;28;19920;-72
2022/12/07 07:32:50;;;;;;;;;;;2.40;99.90;;;;;;4916832;28;20052;-73
2022/12/07 07:35:15;;;;;;;;;;;2.40;99.90;;;;;;4912108;28;19921;-72
2022/12/07 07:37:41;;;;;;;;;;;2.50;99.90;;;;;;4913652;28;20341;-72
2022/12/07 07:40:07;;;;;;;;;;;2.50;99.90;;;;;;4911541;28;20116;-73
2022/12/07 07:42:33;;;;;;;;;;;2.40;99.90;;;;;;4917762;28;19913;-74
2022/12/07 07:44:59;;;;;;;;;;;2.40;99.90;;;;;;4915084;28;19921;-74
2022/12/07 07:47:24;;;;;;;;;;;2.50;99.90;;;;;;4915394;28;20047;-75
2022/12/07 07:49:50;;;;;;;;;;;2.50;99.90;;;;;;4913699;28;19924;-75
2022/12/07 07:52:15;;;;;;;;;;;2.50;99.90;;;;;;4911704;28;19967;-74
2022/12/07 07:54:41;;;;;;;;;;;2.50;99.90;;;;;;4910910;28;20523;-72
2022/12/07 07:57:06;;;;;;;;;;;2.60;99.90;;;;;;4914398;28;20018;-72
2022/12/07 07:59:32;;;;;;;;;;;2.70;99.90;;;;;;4914969;28;19921;-72
2022/12/07 08:01:57;;;;;;;;;;;2.80;99.90;;;;;;4912874;28;19913;-73
2022/12/07 08:04:23;;;;;;;;;;;2.80;99.90;;;;;;4912999;28;19967;-72
2022/12/07 08:06:49;;;;;;;;;;;2.90;99.90;;;;;;4911967;28;19920;-72
2022/12/07 08:09:14;;;;;;;;;;;2.90;99.90;;;;;;4913844;28;24560;-73
2022/12/07 08:11:40;;;;;;;;;;;3.00;99.90;;;;;;4913313;28;19963;-75
2022/12/07 08:14:05;;;;;;;;;;;3.10;99.90;;;;;;4914000;28;19920;-72
2022/12/07 08:16:31;;;;;;;;;;;3.10;99.90;;;;;;4913584;28;19921;-73
2022/12/07 08:18:57;;;;;;;;;;;3.20;99.90;;;;;;4912864;28;19960;-73
2022/12/07 08:21:22;;;;;;;;;;;3.40;99.90;;;;;;4911591;28;20643;-74
2022/12/07 08:23:48;;;;;;;;;;;3.50;99.90;;;;;;4911146;28;19920;-74
2022/12/07 08:26:14;;;;;;;;;;;3.60;99.90;;;;;;4913903;28;19917;-73
2022/12/07 08:28:40;;;;;;;;;;;3.70;99.90;;;;;;4910984;28;19924;-73
2022/12/07 08:31:08;;;;;;;;;;;3.80;99.90;;;;;;4911965;28;19928;-73
2022/12/07 08:33:34;;;;;;;;;;;3.80;99.90;;;;;;4913361;28;19952;-73
2022/12/07 08:36:07;;;;;;;;;;;3.90;99.90;;;;;;4912991;28;19928;-72
2022/12/07 08:38:33;;;;;;;;;;;3.90;99.90;;;;;;4913668;28;19913;-72
2022/12/07 08:40:59;;;;;;;;;;;4.00;99.90;;;;;;4913912;28;19913;-74
2022/12/07 08:43:25;;;;;;;;;;;4.10;99.90;;;;;;4910617;28;19913;-75
2022/12/07 08:45:55;;;;;;;;;;;4.20;99.90;;;;;;4911689;28;19913;-73
2022/12/07 08:48:24;;;;;;;;;;;4.20;99.90;;;;;;4915080;28;20667;-72
2022/12/07 08:50:50;;;;;;;;;;;4.20;99.90;;;;;;4910602;28;20876;-74
2022/12/07 08:53:15;;;;;;;;;;;4.20;99.90;;;;;;4911899;28;19917;-73
2022/12/07 08:55:41;;;;;;;;;;;4.20;99.90;;;;;;4912005;28;19921;-73
2022/12/07 08:58:06;;;;;;;;;;;4.20;99.90;;;;;;4912744;28;20000;-73
2022/12/07 09:00:32;;;;;;;;;;;4.10;99.90;;;;;;4897023;28;20932;-74
2022/12/07 09:02:57;;;;;;;;;;;4.00;99.90;;;;;;4913945;28;19913;-72
2022/12/07 09:05:23;;;;;;;;;;;4.00;99.90;;;;;;4910567;28;19913;-72
2022/12/07 09:07:51;;;;;;;;;;;4.00;99.90;;;;;;4912839;28;20702;-72
2022/12/07 09:10:17;;;;;;;;;;;4.00;99.90;;;;;;4914035;28;20290;-72
2022/12/07 09:12:42;;;;;;;;;;;4.10;99.90;;;;;;4914101;28;19913;-72
2022/12/07 09:15:08;;;;;;;;;;;4.20;99.90;;;;;;4912374;28;20905;-75
2022/12/07 09:17:34;;;;;;;;;;;4.30;99.90;;;;;;4912354;28;20926;-72
2022/12/07 09:20:00;;;;;;;;;;;4.40;99.90;;;;;;4911020;28;19921;-72
2022/12/07 09:22:30;;;;;;;;;;;4.50;99.90;;;;;;4911671;28;19920;-73
2022/12/07 09:24:56;;;;;;;;;;;4.60;99.90;;;;;;4915532;28;20108;-73
2022/12/07 09:27:22;;;;;;;;;;;4.60;99.90;;;;;;4914512;28;19952;-73
2022/12/07 09:29:47;;;;;;;;;;;4.70;99.90;;;;;;4915961;28;19917;-72
2022/12/07 09:32:13;;;;;;;;;;;4.70;99.90;;;;;;4911808;28;19913;-72
2022/12/07 09:34:38;;;;;;;;;;;4.70;99.90;;;;;;4912233;28;19920;-73
2022/12/07 09:37:04;;;;;;;;;;;4.70;99.90;;;;;;4909256;28;20429;-72
2022/12/07 09:39:30;;;;;;;;;;;4.70;99.90;;;;;;4911671;28;19959;-73
2022/12/07 09:41:57;;;;;;;;;;;4.70;99.90;;;;;;4909284;28;19920;-73
2022/12/07 09:44:26;;;;;;;;;;;4.80;99.90;;;;;;4912488;28;20052;-72
2022/12/07 09:46:53;;;;;;;;;;;4.90;99.90;;;;;;4909430;28;19953;-72
2022/12/07 09:49:22;;;;;;;;;;;4.90;99.90;;;;;;4924493;28;19913;-72
2022/12/07 09:51:48;;;;;;;;;;;4.90;99.90;;;;;;4912449;28;20194;-72
2022/12/07 09:54:14;;;;;;;;;;;4.90;99.90;;;;;;4911776;28;19912;-75
2022/12/07 09:56:40;;;;;;;;;;;4.70;99.90;;;;;;4910766;28;19928;-72
2022/12/07 09:59:06;;;;;;;;;;;4.70;99.90;;;;;;4911284;28;19932;-72
2022/12/07 10:01:32;;;;;;;;;;;4.70;99.90;;;;;;4910521;28;21145;-72
2022/12/07 10:04:21;;;;;;;;;;;4.80;99.90;;;;;;4909448;28;20405;-72
2022/12/07 10:06:47;;;;;;;;;;;4.90;99.90;;;;;;4905065;28;20633;-73
2022/12/07 10:09:15;;;;;;;;;;;5.00;99.90;;;;;;4912742;28;19913;-72
2022/12/07 10:11:59;;;;;;;;;;;5.00;99.90;;;;;;4910918;28;20323;-73
2022/12/07 10:14:26;;;;;;;;;;;5.10;99.90;;;;;;4908082;28;20180;-73
2022/12/07 10:16:52;;;;;;;;;;;5.20;99.90;;;;;;4913295;28;20529;-73
2022/12/07 10:19:19;;;;;;;;;;;5.40;99.90;;;;;;4999937;28;19917;-73
2022/12/07 10:22:00;;;;;;;;;;;5.50;99.90;;;;;;5035812;28;19912;-73
2022/12/07 10:24:26;;;;;;;;;;;5.60;99.90;;;;;;5026698;28;19917;-73
2022/12/07 10:26:53;;;;;;;;;;;5.70;99.90;;;;;;5033850;28;19975;-73
2022/12/07 10:29:38;;;;;;;;;;;5.70;99.90;;;;;;5029980;28;19909;-73
2022/12/07 10:32:06;;;;;;;;;;;5.80;99.90;;;;;;5030683;28;20296;-73
2022/12/07 10:34:36;;;;;;;;;;;5.80;99.90;;;;;;5035257;28;19919;-73
2022/12/07 10:37:17;;;;;;;;;;;5.80;99.90;;;;;;5033208;28;19912;-73
2022/12/07 10:39:43;;;;;;;;;;;5.80;99.90;;;;;;5029155;28;19963;-75
2022/12/07 10:42:32;;;;;;;;;;;5.70;99.90;;;;;;5025884;28;20301;-73
2022/12/07 10:45:15;;;;;;;;;;;5.60;99.90;;;;;;4907171;28;20795;-73
2022/12/07 10:47:40;;;;;;;;;;;5.50;99.90;;;;;;4908787;28;19913;-73
2022/12/07 10:50:06;;;;;;;;;;;5.50;99.90;;;;;;4904815;28;19948;-73
2022/12/07 10:52:34;;;;;;;;;;;5.40;99.90;;;;;;4907463;28;20007;-73
2022/12/07 10:55:06;;;;;;;;;;;5.30;99.90;;;;;;4909413;28;21611;-73
2022/12/07 10:57:50;;;;;;;;;;;5.20;99.90;;;;;;4911299;28;20526;-73
2022/12/07 11:00:20;;;;;;;;;;;5.10;99.90;;;;;;4911854;28;19913;-73
2022/12/07 11:03:05;;;;;;;;;;;5.00;99.90;;;;;;4922665;28;19917;-72
2022/12/07 11:05:32;;;;;;;;;;;5.00;99.90;;;;;;4907947;28;21518;-72
2022/12/07 11:08:21;;;;;;;;;;;5.10;99.90;;;;;;4928210;28;19964;-72
2022/12/07 11:10:55;;;;;;;;;;;5.30;99.90;;;;;;4911760;28;20864;-72
2022/12/07 11:13:20;;;;;;;;;;;5.50;99.90;;;;;;4907781;28;19920;-73
2022/12/07 11:16:01;;;;;;;;;;;5.70;99.90;;;;;;4906643;28;19921;-73
2022/12/07 11:18:46;;;;;;;;;;;5.80;99.90;;;;;;4906448;28;19928;-74
2022/12/07 11:21:14;;;;;;;;;;;5.90;99.90;;;;;;4907696;28;20374;-73
2022/12/07 11:23:40;;;;;;;;;;;6.10;99.90;;;;;;4908269;28;19932;-75
2022/12/07 11:26:21;;;;;;;;;;;6.20;99.90;;;;;;4910416;28;20017;-73
2022/12/07 11:28:56;;;;;;;;;;;6.30;99.90;;;;;;4907596;28;19914;-73
2022/12/07 11:31:30;;;;;;;;;;;6.40;99.90;;;;;;4901996;28;19960;-73
2022/12/07 11:34:34;;;;;;;;;;;6.40;99.90;;;;;;4918727;28;19913;-73
2022/12/07 11:37:02;;;;;;;;;;;6.50;99.90;;;;;;4862865;28;20576;-71
2022/12/07 11:39:39;;;;;;;;;;;6.60;99.90;;;;;;4857367;28;19914;-73
2022/12/07 11:42:34;;;;;;;;;;;6.70;99.90;;;;;;4859492;28;19914;-74
2022/12/07 11:45:02;;;;;;;;;;;6.80;99.90;;;;;;4851587;28;21239;-75
2022/12/07 11:47:28;;;;;;;;;;;6.80;99.90;;;;;;4862359;28;19920;-73
2022/12/07 11:50:01;;;;;;;;;;;6.90;99.90;;;;;;4844314;28;22096;-73
2022/12/07 11:52:26;;;;;;;;;;;7.00;99.90;;;;;;4857644;28;19914;-73
2022/12/07 11:54:52;;;;;;;;;;;7.00;99.90;;;;;;4858929;28;20324;-72
2022/12/07 11:57:38;;;;;;;;;;;7.20;99.90;;;;;;4862725;28;19914;-73
2022/12/07 12:00:07;;;;;;;;;;;7.40;99.90;;;;;;4865374;28;19972;-73
2022/12/07 12:02:41;;;;;;;;;;;7.70;99.90;;;;;;4847566;28;21240;-73
2022/12/07 12:05:17;;;;;;;;;;;7.90;99.90;;;;;;4863366;28;19917;-74
2022/12/07 12:07:44;;;;;;;;;;;7.90;99.90;;;;;;4887088;28;21358;-72
2022/12/07 12:10:37;;;;;;;;;;;7.10;99.90;;;;;;5006913;28;19909;-82
2022/12/07 12:13:03;;;;;;;;;;;6.20;99.90;;;;;;5032493;28;19909;-74
2022/12/07 12:15:35;;;;;;;;;;;5.50;99.90;;;;;;5032678;28;20366;-76
2022/12/07 12:18:19;;;;;;;;;;;5.30;99.90;;;;;;5029490;28;19913;-77
2022/12/07 12:20:48;;;;;;;;;;;5.20;99.90;;;;;;5030963;28;19925;-75
2022/12/07 12:23:43;;;;;;;;;;;5.10;99.90;;;;;;5029389;28;19972;-77
2022/12/07 12:26:14;;;;;;;;;;;5.10;99.90;;;;;;5020612;28;20367;-77
2022/12/07 12:28:49;;;;;;;;;;;5.10;99.90;;;;;;5036614;28;20000;-77
2022/12/07 12:31:28;;;;;;;;;;;5.30;99.90;;;;;;5035335;28;20383;-76
2022/12/07 12:33:58;;;;;;;;;;;5.50;99.90;;;;;;5033995;28;20294;-76
2022/12/07 12:36:43;;;;;;;;;;;5.70;99.90;;;;;;5033798;28;20252;-76
2022/12/07 12:39:10;;;;;;;;;;;5.80;99.90;;;;;;4980615;28;20062;-75
2022/12/07 12:41:36;;;;;;;;;;;6.00;99.90;;;;;;4913429;28;24220;-77
2022/12/07 12:44:02;;;;;;;;;;;6.10;99.90;;;;;;4912478;28;19920;-74
2022/12/07 12:46:33;;;;;;;;;;;6.20;99.90;;;;;;4912389;28;20004;-74
2022/12/07 12:49:17;;;;;;;;;;;6.20;99.90;;;;;;4911941;28;21816;-75
2022/12/07 12:51:44;;;;;;;;;;;6.10;99.90;;;;;;4912453;28;19913;-76
2022/12/07 12:54:14;;;;;;;;;;;6.20;99.90;;;;;;4912353;28;20059;-74
2022/12/07 12:56:42;;;;;;;;;;;6.20;99.90;;;;;;4912300;28;19917;-73
2022/12/07 12:59:27;;;;;;;;;;;6.20;99.90;;;;;;4925062;28;21362;-76
2022/12/07 13:02:15;;;;;;;;;;;6.20;99.90;;;;;;4912271;28;20008;-74
2022/12/07 13:04:53;;;;;;;;;;;6.20;99.90;;;;;;4912404;28;19913;-74
2022/12/07 13:07:38;;;;;;;;;;;6.10;99.90;;;;;;4912104;28;20370;-74
2022/12/07 13:10:03;;;;;;;;;;;6.00;99.90;;;;;;4911950;28;21105;-74
2022/12/07 13:12:29;;;;;;;;;;;5.90;99.90;;;;;;4914477;28;19913;-74
2022/12/07 13:14:58;;;;;;;;;;;5.90;99.90;;;;;;4913149;28;20537;-74
2022/12/07 13:17:33;;;;;;;;;;;5.90;99.90;;;;;;4913114;28;24221;-73
2022/12/07 13:20:00;;;;;;;;;;;5.90;99.90;;;;;;4912042;28;19967;-73
2022/12/07 13:22:31;;;;;;;;;;;5.80;99.90;;;;;;4910489;28;20020;-74
2022/12/07 13:24:57;;;;;;;;;;;5.80;99.90;;;;;;4912585;28;21215;-73
2022/12/07 13:27:25;;;;;;;;;;;5.70;99.90;;;;;;4913929;28;20735;-73
2022/12/07 13:29:50;;;;;;;;;;;5.60;99.90;;;;;;4912786;28;20228;-72
2022/12/07 13:32:34;;;;;;;;;;;5.60;99.90;;;;;;4912105;28;20020;-74
2022/12/07 13:35:00;;;;;;;;;;;5.60;99.90;;;;;;4907876;28;20323;-73
2022/12/07 13:37:27;;;;;;;;;;;5.60;99.90;;;;;;4911799;28;19916;-74
2022/12/07 13:39:52;;;;;;;;;;;5.70;99.90;;;;;;4911509;28;19913;-74
2022/12/07 13:42:28;;;;;;;;;;;5.70;99.90;;;;;;4911381;28;19917;-74
2022/12/07 13:44:54;;;;;;;;;;;5.70;99.90;;;;;;4909877;28;20286;-73
2022/12/07 13:47:26;;;;;;;;;;;5.60;99.90;;;;;;4911207;28;19995;-73
2022/12/07 13:49:53;;;;;;;;;;;5.60;99.90;;;;;;4912389;28;21313;-73
2022/12/07 13:52:27;;;;;;;;;;;5.60;99.90;;;;;;4905582;28;19913;-73
2022/12/07 13:55:04;;;;;;;;;;;5.70;99.90;;;;;;4909189;28;19967;-73
2022/12/07 13:57:33;;;;;;;;;;;5.70;99.90;;;;;;4910534;28;21537;-74
2022/12/07 13:59:59;;;;;;;;;;;5.80;99.90;;;;;;4910008;28;20268;-73
2022/12/07 14:02:29;;;;;;;;;;;5.80;99.90;;;;;;4908053;28;19927;-74
2022/12/07 14:05:15;;;;;;;;;;;5.80;99.90;;;;;;4908657;28;19920;-73
2022/12/07 14:08:07;;;;;;;;;;;5.80;99.90;;;;;;4908399;28;19999;-73
2022/12/07 14:10:34;;;;;;;;;;;5.90;99.90;;;;;;4886423;28;19949;-74
2022/12/07 14:13:00;;;;;;;;;;;5.80;99.90;;;;;;4910947;28;19940;-74
2022/12/07 14:15:30;;;;;;;;;;;5.80;99.90;;;;;;4909722;28;20454;-74
2022/12/07 14:17:57;;;;;;;;;;;5.70;99.90;;;;;;4924876;28;19931;-73
2022/12/07 14:20:34;;;;;;;;;;;5.70;99.90;;;;;;4910772;28;19917;-73
2022/12/07 14:23:08;;;;;;;;;;;5.60;99.90;;;;;;4909785;28;19913;-73
2022/12/07 14:25:47;;;;;;;;;;;5.60;99.90;;;;;;4911628;28;19917;-72
2022/12/07 14:28:25;;;;;;;;;;;5.30;99.90;;;;;;4908198;28;24361;-73
2022/12/07 14:30:50;;;;;;;;;;;4.90;99.90;;;;;;4913031;28;21357;-72
2022/12/07 14:33:23;;;;;;;;;;;4.70;99.90;;;;;;4924884;28;19912;-73
2022/12/07 14:35:49;;;;;;;;;;;4.70;99.90;;;;;;4908766;28;19941;-73
2022/12/07 14:38:14;;;;;;;;;;;4.70;99.90;;;;;;4909731;28;19924;-73
2022/12/07 14:40:40;;;;;;;;;;;4.60;99.90;;;;;;4909940;28;19917;-74
2022/12/07 14:43:10;;;;;;;;;;;4.50;99.90;;;;;;4909469;28;19913;-73
2022/12/07 14:45:36;;;;;;;;;;;4.50;99.90;;;;;;4922553;28;19920;-73